Etusivu
METAR-TAF:

METAR-TAF

Lentoasemat :

Puerto Plata, Dominikaaninen tasavalta

Leveyspiiri: 19-45N, Pituuspiiri: 070-33W, korkeus merenpinnasta: 15 m

Tämänhetkinen sää

Tämä raportti tehtiin 57 minuuttia sitten, kello 01.00 UTC
tyyntä
Lämpötila 23°C
Kosteus 89%
Ilmanpaine 1015 hPa
Näkyvyys 10 km tai enemmän
Muutamia pilviä 1800 ft:n korkeudessa

METAR: MDPP 240100Z 00000KT 9999 FEW018 23/21 Q1015

Aika: 21:57 (01:57 UTC)

Sääennuste

Tämä raportti tehtiin 3 tuntia ja 57 minuuttia sitten, kello 22.00 UTC
Ennuste voimassa 24. päivästä klo 00 UTC - 25. päivään klo 00 UTC
Tuuli 10 kn idästä
Näkyvyys 10 km tai enemmän
Hajanaisia pilviä 1800 ft:n korkeudessa
Tulossa
24. päivästä klo 02 UTC - 24. päivään klo 04 UTC
Tuuli kn pohjoisesta

TAF: MDPP 232200Z 2400/2500 09010KT 9999 SCT018 BECMG 2402/2404 00000KT

Säähavainnot ja -ennusteet yli 4000 lentoasemalta (METAR- ja TAF-raportit).

Käytössä olevat sääasemat on merkitty karttaan keltaisilla ja punaisilla pisteillä.

Aseta hiiri pisteen päälle nähdäksesi sääaseman nimen.

Klikkaa sitten nähdäksesi säähavainnot ja -ennusteet.

Kartan vaihtaminen: klikkaa mustalla rastilla varustettuja vihreitä pisteitä, niin voit zoomata sisään; viivalla varustettua vihreää pistettä, niin voit zoomata ulos tai vihreitä nuolia, niin pääset viereisille kartoille.


METAR-TAF: